Time;durP1;ratioP1;P1;durP2;ratioP2;P2;SDS_P1;SDS_P2;PMS_P1;PMS_P2;Temp;Humidity;BMP_temperature;BMP_pressure;BME280_temperature;BME280_humidity;BME280_pressure;Samples;Min_cycle;Max_cycle;Signal;HPM_P1;HPM_P2
2022/05/19 00:02:09;;;;;;;29.48;15.63;;;;;;;;;;5035005;28;20056;-67
2022/05/19 00:04:35;;;;;;;28.58;16.60;;;;;;;;;;5037449;28;20107;-69
2022/05/19 00:07:02;;;;;;;29.33;14.65;;;;;;;;;;5036280;28;20159;-68
2022/05/19 00:09:28;;;;;;;28.08;15.20;;;;;;;;;;5037962;28;20045;-69
2022/05/19 00:11:56;;;;;;;24.88;14.05;;;;;;;;;;5036846;28;20048;-68
2022/05/19 00:14:22;;;;;;;33.95;19.10;;;;;;;;;;5038713;28;20421;-68
2022/05/19 00:16:48;;;;;;;40.00;21.65;;;;;;;;;;5038212;28;20343;-66
2022/05/19 00:19:15;;;;;;;40.38;22.02;;;;;;;;;;5037807;28;20128;-67
2022/05/19 00:21:41;;;;;;;41.90;22.75;;;;;;;;;;5037109;28;20060;-68
2022/05/19 00:24:08;;;;;;;44.40;22.25;;;;;;;;;;5038617;28;20068;-68
2022/05/19 00:26:34;;;;;;;36.28;21.55;;;;;;;;;;5038446;28;20048;-68
2022/05/19 00:29:00;;;;;;;39.58;21.30;;;;;;;;;;5039094;28;20060;-67
2022/05/19 00:31:26;;;;;;;39.33;22.52;;;;;;;;;;5038956;28;20461;-67
2022/05/19 00:33:52;;;;;;;37.53;22.10;;;;;;;;;;5039473;28;20563;-67
2022/05/19 00:36:20;;;;;;;40.72;21.25;;;;;;;;;;5036463;28;20037;-67
2022/05/19 00:38:47;;;;;;;36.70;22.10;;;;;;;;;;5039229;28;20103;-66
2022/05/19 00:41:14;;;;;;;33.80;20.42;;;;;;;;;;5037531;28;20044;-67
2022/05/19 00:43:43;;;;;;;37.47;20.73;;;;;;;;;;5039770;28;20045;-68
2022/05/19 00:46:20;;;;;;;38.45;21.10;;;;;;;;;;5034184;28;20068;-67
2022/05/19 00:49:04;;;;;;;36.22;20.73;;;;;;;;;;5037943;28;20492;-68
2022/05/19 00:51:39;;;;;;;39.42;21.58;;;;;;;;;;5037079;28;20454;-67
2022/05/19 00:54:09;;;;;;;38.22;20.92;;;;;;;;;;5033493;28;20053;-67
2022/05/19 00:56:47;;;;;;;36.25;21.38;;;;;;;;;;5037109;28;20063;-69
2022/05/19 00:59:23;;;;;;;44.10;22.23;;;;;;;;;;5035128;28;20912;-66
2022/05/19 01:01:50;;;;;;;37.45;21.83;;;;;;;;;;5029157;28;20044;-68
2022/05/19 01:04:44;;;;;;;36.65;21.42;;;;;;;;;;5035848;28;20215;-67
2022/05/19 01:07:16;;;;;;;39.67;21.65;;;;;;;;;;5039270;28;20149;-67
2022/05/19 01:09:43;;;;;;;44.47;22.00;;;;;;;;;;5039687;28;20139;-67
2022/05/19 01:12:10;;;;;;;35.00;22.10;;;;;;;;;;5041446;28;20485;-68
2022/05/19 01:14:36;;;;;;;33.22;21.77;;;;;;;;;;5037885;28;20119;-66
2022/05/19 01:17:06;;;;;;;44.80;21.52;;;;;;;;;;5034992;28;20076;-67
2022/05/19 01:19:42;;;;;;;38.25;22.13;;;;;;;;;;5039183;28;20076;-69
2022/05/19 01:22:17;;;;;;;38.40;22.02;;;;;;;;;;5035082;28;20492;-66
2022/05/19 01:25:12;;;;;;;39.85;22.02;;;;;;;;;;5038458;28;20079;-67
2022/05/19 01:27:38;;;;;;;38.20;22.30;;;;;;;;;;5037883;28;20109;-67
2022/05/19 01:30:06;;;;;;;35.83;21.63;;;;;;;;;;5036571;28;20049;-67
2022/05/19 01:32:32;;;;;;;39.17;21.38;;;;;;;;;;5034598;28;20131;-66
2022/05/19 01:35:00;;;;;;;31.75;21.45;;;;;;;;;;5034532;28;20057;-67
2022/05/19 01:37:26;;;;;;;34.17;20.95;;;;;;;;;;5036224;28;20045;-66
2022/05/19 01:40:02;;;;;;;38.13;21.20;;;;;;;;;;5038338;28;20051;-67
2022/05/19 01:42:34;;;;;;;35.47;21.65;;;;;;;;;;5042012;28;20587;-68
2022/05/19 01:45:08;;;;;;;39.35;21.20;;;;;;;;;;5037831;28;20395;-66
2022/05/19 01:47:46;;;;;;;44.40;21.42;;;;;;;;;;5041412;28;20041;-65
2022/05/19 01:50:34;;;;;;;36.88;21.17;;;;;;;;;;5042481;28;20064;-67
2022/05/19 01:53:15;;;;;;;39.60;21.70;;;;;;;;;;5041815;28;20045;-66
2022/05/19 01:56:13;;;;;;;35.53;21.00;;;;;;;;;;5039249;28;20056;-66
2022/05/19 01:59:32;;;;;;;48.17;21.27;;;;;;;;;;5037228;28;20575;-65
2022/05/19 02:02:13;;;;;;;36.15;20.83;;;;;;;;;;5014059;28;20076;-64
2022/05/19 02:05:12;;;;;;;35.85;20.30;;;;;;;;;;5017499;28;21063;-68
2022/05/19 02:07:41;;;;;;;36.33;21.60;;;;;;;;;;5005668;28;20049;-66
2022/05/19 02:10:13;;;;;;;34.20;21.40;;;;;;;;;;5016463;28;20049;-68
2022/05/19 02:12:39;;;;;;;39.90;21.75;;;;;;;;;;5020192;28;20543;-65
2022/05/19 02:15:10;;;;;;;44.70;21.58;;;;;;;;;;5018667;28;20077;-66
2022/05/19 02:17:36;;;;;;;41.10;21.38;;;;;;;;;;5015647;28;20062;-66
2022/05/19 02:20:06;;;;;;;41.28;22.40;;;;;;;;;;5017246;28;20037;-67
2022/05/19 02:22:35;;;;;;;38.90;21.60;;;;;;;;;;5016582;28;20058;-67
2022/05/19 02:25:11;;;;;;;43.00;22.27;;;;;;;;;;5016676;28;20072;-66
2022/05/19 02:27:55;;;;;;;42.78;20.52;;;;;;;;;;5018094;28;20049;-66
2022/05/19 02:30:29;;;;;;;47.22;21.77;;;;;;;;;;5015581;28;20563;-66
2022/05/19 02:32:55;;;;;;;34.65;20.30;;;;;;;;;;5016910;28;20057;-66
2022/05/19 02:35:22;;;;;;;38.65;21.10;;;;;;;;;;5024620;28;20040;-66
2022/05/19 02:37:48;;;;;;;40.47;21.30;;;;;;;;;;5042011;28;20136;-68
2022/05/19 02:40:17;;;;;;;37.10;20.70;;;;;;;;;;5039041;28;20523;-67
2022/05/19 02:42:43;;;;;;;45.42;21.50;;;;;;;;;;5040146;28;20045;-67
2022/05/19 02:45:11;;;;;;;41.58;21.23;;;;;;;;;;5039549;28;20053;-66
2022/05/19 02:47:36;;;;;;;40.17;21.27;;;;;;;;;;5038547;28;20111;-66
2022/05/19 02:50:04;;;;;;;46.75;21.83;;;;;;;;;;5037187;28;21164;-67
2022/05/19 02:52:30;;;;;;;39.08;22.90;;;;;;;;;;5038892;28;20051;-66
2022/05/19 02:54:56;;;;;;;40.97;22.13;;;;;;;;;;5040868;28;20073;-66
2022/05/19 02:57:22;;;;;;;44.13;23.38;;;;;;;;;;5040768;28;20142;-68
2022/05/19 02:59:48;;;;;;;41.50;23.17;;;;;;;;;;5037906;28;20060;-67
2022/05/19 03:02:14;;;;;;;38.28;23.08;;;;;;;;;;5039818;28;20146;-65
2022/05/19 03:04:39;;;;;;;40.53;23.10;;;;;;;;;;5040741;28;20041;-66
2022/05/19 03:07:06;;;;;;;45.40;22.83;;;;;;;;;;5036261;28;20053;-67
2022/05/19 03:09:33;;;;;;;41.30;22.63;;;;;;;;;;5043667;28;20041;-66
2022/05/19 03:11:58;;;;;;;38.13;22.17;;;;;;;;;;5042260;28;20532;-67
2022/05/19 03:14:25;;;;;;;45.22;22.95;;;;;;;;;;5042049;28;20127;-67
2022/05/19 03:16:50;;;;;;;40.38;22.73;;;;;;;;;;5039466;28;20148;-65
2022/05/19 03:19:17;;;;;;;40.80;22.95;;;;;;;;;;5037958;28;20049;-65
2022/05/19 03:21:43;;;;;;;38.53;22.60;;;;;;;;;;5037441;28;20114;-67
2022/05/19 03:24:09;;;;;;;38.17;22.15;;;;;;;;;;5040759;28;20697;-66
2022/05/19 03:26:36;;;;;;;35.33;22.52;;;;;;;;;;5035606;28;20040;-66
2022/05/19 03:29:03;;;;;;;38.45;21.83;;;;;;;;;;5037668;28;21238;-67
2022/05/19 03:31:29;;;;;;;42.42;22.63;;;;;;;;;;5037493;28;20087;-66
2022/05/19 03:33:55;;;;;;;36.92;21.75;;;;;;;;;;5037387;28;20041;-71
2022/05/19 03:36:21;;;;;;;42.00;21.67;;;;;;;;;;5039566;28;20087;-66
2022/05/19 03:38:47;;;;;;;35.72;22.40;;;;;;;;;;5040747;28;20082;-65
2022/05/19 03:41:14;;;;;;;36.88;21.85;;;;;;;;;;5041299;28;20056;-66
2022/05/19 03:43:40;;;;;;;39.83;23.02;;;;;;;;;;5041889;28;20646;-66
2022/05/19 03:46:06;;;;;;;41.00;23.05;;;;;;;;;;5040089;28;20045;-67
2022/05/19 03:48:36;;;;;;;42.10;22.83;;;;;;;;;;5042341;28;20126;-67
2022/05/19 03:51:04;;;;;;;39.17;22.08;;;;;;;;;;5036661;28;20050;-67
2022/05/19 03:53:31;;;;;;;36.42;21.02;;;;;;;;;;5035728;28;20052;-69
2022/05/19 03:55:56;;;;;;;37.50;21.92;;;;;;;;;;5038017;28;20049;-66
2022/05/19 03:58:23;;;;;;;38.25;22.80;;;;;;;;;;5037148;28;20387;-67
2022/05/19 04:00:49;;;;;;;43.45;22.80;;;;;;;;;;5034008;28;20045;-65
2022/05/19 04:03:15;;;;;;;38.13;23.45;;;;;;;;;;5032216;28;20144;-65
2022/05/19 04:05:41;;;;;;;40.38;23.20;;;;;;;;;;5037709;28;20045;-66
2022/05/19 04:08:07;;;;;;;41.35;23.13;;;;;;;;;;5041699;28;20053;-67
2022/05/19 04:10:33;;;;;;;37.30;21.52;;;;;;;;;;5036937;28;20053;-67
2022/05/19 04:12:59;;;;;;;42.60;22.00;;;;;;;;;;5035278;28;20053;-67
2022/05/19 04:15:25;;;;;;;39.58;22.45;;;;;;;;;;5035103;28;20049;-66
2022/05/19 04:17:51;;;;;;;40.80;22.77;;;;;;;;;;5038589;28;20073;-66
2022/05/19 04:20:17;;;;;;;39.17;22.42;;;;;;;;;;5040773;28;20057;-69
2022/05/19 04:22:43;;;;;;;41.92;22.75;;;;;;;;;;5039286;28;20048;-67
2022/05/19 04:25:11;;;;;;;41.38;22.60;;;;;;;;;;5039326;28;20084;-67
2022/05/19 04:27:37;;;;;;;40.55;22.90;;;;;;;;;;5037581;28;20059;-67
2022/05/19 04:30:04;;;;;;;40.55;21.70;;;;;;;;;;5034895;28;20049;-65
2022/05/19 04:32:30;;;;;;;43.50;23.23;;;;;;;;;;5038750;28;20131;-66
2022/05/19 04:34:56;;;;;;;36.78;22.25;;;;;;;;;;5031855;28;20053;-63
2022/05/19 04:37:23;;;;;;;35.50;22.30;;;;;;;;;;5038345;28;20515;-68
2022/05/19 04:39:48;;;;;;;41.30;22.60;;;;;;;;;;5037031;28;20296;-65
2022/05/19 04:42:14;;;;;;;45.53;21.42;;;;;;;;;;5032406;28;20053;-66
2022/05/19 04:44:40;;;;;;;38.33;22.98;;;;;;;;;;5036388;28;20095;-67
2022/05/19 04:47:07;;;;;;;36.42;22.88;;;;;;;;;;5039569;28;20083;-64
2022/05/19 04:49:33;;;;;;;40.25;21.98;;;;;;;;;;5035767;28;20037;-64
2022/05/19 04:51:59;;;;;;;38.25;22.42;;;;;;;;;;5038823;28;20287;-67
2022/05/19 04:54:25;;;;;;;41.03;22.38;;;;;;;;;;5040349;28;20060;-65
2022/05/19 04:56:51;;;;;;;40.60;22.23;;;;;;;;;;5038957;28;20049;-65
2022/05/19 04:59:17;;;;;;;41.92;21.88;;;;;;;;;;5034983;28;20111;-71
2022/05/19 05:01:45;;;;;;;45.63;21.98;;;;;;;;;;5033400;28;20053;-67
2022/05/19 05:04:13;;;;;;;41.13;22.60;;;;;;;;;;5036116;28;20045;-64
2022/05/19 05:06:39;;;;;;;40.88;22.35;;;;;;;;;;5038695;28;20063;-69
2022/05/19 05:09:05;;;;;;;40.92;22.13;;;;;;;;;;5040416;28;20060;-64
2022/05/19 05:11:32;;;;;;;36.35;21.40;;;;;;;;;;5037993;28;20048;-66
2022/05/19 05:13:57;;;;;;;37.15;21.08;;;;;;;;;;5036904;28;20056;-67
2022/05/19 05:16:24;;;;;;;37.03;22.38;;;;;;;;;;5041119;28;20045;-66
2022/05/19 05:18:50;;;;;;;39.50;21.13;;;;;;;;;;5040026;28;20198;-67
2022/05/19 05:21:15;;;;;;;43.00;21.25;;;;;;;;;;5040459;28;20053;-65
2022/05/19 05:23:41;;;;;;;36.35;21.05;;;;;;;;;;5039849;28;20606;-66
2022/05/19 05:26:08;;;;;;;34.75;20.77;;;;;;;;;;5038537;28;20052;-65
2022/05/19 05:28:36;;;;;;;42.13;21.40;;;;;;;;;;5044604;28;20048;-63
2022/05/19 05:31:02;;;;;;;39.38;21.48;;;;;;;;;;5040560;28;20042;-66
2022/05/19 05:33:28;;;;;;;33.92;21.42;;;;;;;;;;5043358;28;20045;-63
2022/05/19 05:35:54;;;;;;;37.65;21.42;;;;;;;;;;5037859;28;20045;-64
2022/05/19 05:38:20;;;;;;;38.83;21.02;;;;;;;;;;5039676;28;20439;-65
2022/05/19 05:40:50;;;;;;;41.13;22.00;;;;;;;;;;5042684;28;20143;-64
2022/05/19 05:43:19;;;;;;;40.95;21.73;;;;;;;;;;5043854;28;20159;-66
2022/05/19 05:45:48;;;;;;;39.35;21.73;;;;;;;;;;5041409;28;20520;-65
2022/05/19 05:48:15;;;;;;;46.47;21.15;;;;;;;;;;5042051;28;20045;-64
2022/05/19 05:50:42;;;;;;;41.75;21.65;;;;;;;;;;5044648;28;20060;-64
2022/05/19 05:53:09;;;;;;;43.08;22.02;;;;;;;;;;5046236;28;20102;-67
2022/05/19 05:55:37;;;;;;;39.88;22.23;;;;;;;;;;5044035;28;20080;-65
2022/05/19 05:58:07;;;;;;;43.75;22.25;;;;;;;;;;5039833;28;20135;-68
2022/05/19 06:00:33;;;;;;;41.88;22.77;;;;;;;;;;5039507;28;20178;-66
2022/05/19 06:02:59;;;;;;;42.83;21.90;;;;;;;;;;5040631;28;20049;-65
2022/05/19 06:05:25;;;;;;;45.58;22.83;;;;;;;;;;5038461;28;20044;-68
2022/05/19 06:07:51;;;;;;;41.00;22.30;;;;;;;;;;5039152;28;20057;-66
2022/05/19 06:10:18;;;;;;;41.58;22.17;;;;;;;;;;5043990;28;20427;-66
2022/05/19 06:12:44;;;;;;;43.67;22.15;;;;;;;;;;5043582;28;20080;-66
2022/05/19 06:15:13;;;;;;;46.05;22.42;;;;;;;;;;5039555;28;20378;-66
2022/05/19 06:17:39;;;;;;;47.22;22.67;;;;;;;;;;5040060;28;20049;-65
2022/05/19 06:20:08;;;;;;;45.30;24.02;;;;;;;;;;5037742;28;20056;-69
2022/05/19 06:22:34;;;;;;;44.80;23.40;;;;;;;;;;5041075;28;20053;-67
2022/05/19 06:25:00;;;;;;;43.80;23.55;;;;;;;;;;5041104;28;20160;-63
2022/05/19 06:27:26;;;;;;;46.45;23.85;;;;;;;;;;5041153;28;20049;-65
2022/05/19 06:29:52;;;;;;;47.03;23.80;;;;;;;;;;5044991;28;20041;-64
2022/05/19 06:32:18;;;;;;;49.20;23.92;;;;;;;;;;5041402;28;20061;-65
2022/05/19 06:34:43;;;;;;;45.63;24.83;;;;;;;;;;5039707;28;20041;-64
2022/05/19 06:37:09;;;;;;;50.95;23.98;;;;;;;;;;5040439;28;20492;-66
2022/05/19 06:39:35;;;;;;;38.35;22.83;;;;;;;;;;5041197;28;20049;-63
2022/05/19 06:42:01;;;;;;;44.25;22.48;;;;;;;;;;5039379;28;20502;-67
2022/05/19 06:44:32;;;;;;;42.45;23.20;;;;;;;;;;5029312;28;20539;-62
2022/05/19 06:46:59;;;;;;;41.10;24.35;;;;;;;;;;5036272;28;20037;-64
2022/05/19 06:49:25;;;;;;;47.60;23.65;;;;;;;;;;5034385;28;20467;-63
2022/05/19 06:51:51;;;;;;;40.42;23.83;;;;;;;;;;5029677;28;20085;-63
2022/05/19 06:54:18;;;;;;;38.90;22.35;;;;;;;;;;5034328;28;20060;-63
2022/05/19 06:56:45;;;;;;;45.90;23.08;;;;;;;;;;5046787;28;20160;-61
2022/05/19 06:59:11;;;;;;;44.88;21.85;;;;;;;;;;5047405;28;20045;-64
2022/05/19 07:01:37;;;;;;;49.63;22.85;;;;;;;;;;5041317;28;20048;-67
2022/05/19 07:04:03;;;;;;;44.83;22.90;;;;;;;;;;5043535;28;20051;-63
2022/05/19 07:06:29;;;;;;;36.90;22.60;;;;;;;;;;5039833;28;20045;-63
2022/05/19 07:08:55;;;;;;;41.17;21.65;;;;;;;;;;5038329;28;20415;-66
2022/05/19 07:11:27;;;;;;;46.25;21.80;;;;;;;;;;5021327;28;20075;-65
2022/05/19 07:13:59;;;;;;;44.33;21.90;;;;;;;;;;5029525;28;20060;-64
2022/05/19 07:16:25;;;;;;;39.38;20.13;;;;;;;;;;5037930;28;20439;-65
2022/05/19 07:18:51;;;;;;;46.08;20.45;;;;;;;;;;5035283;28;21285;-65
2022/05/19 07:21:18;;;;;;;39.72;21.73;;;;;;;;;;5039661;28;20045;-68
2022/05/19 07:23:46;;;;;;;39.10;20.80;;;;;;;;;;5035560;28;20507;-69
2022/05/19 07:26:13;;;;;;;42.65;20.52;;;;;;;;;;5036222;28;20057;-70
2022/05/19 07:28:38;;;;;;;38.42;19.80;;;;;;;;;;5040685;28;20164;-68
2022/05/19 07:31:04;;;;;;;36.47;20.92;;;;;;;;;;5036568;28;20044;-68
2022/05/19 07:33:34;;;;;;;37.95;21.75;;;;;;;;;;5037639;28;20597;-72
2022/05/19 07:36:00;;;;;;;37.90;21.55;;;;;;;;;;5036705;28;20049;-68
2022/05/19 07:38:26;;;;;;;38.90;19.58;;;;;;;;;;5035350;28;20459;-69
2022/05/19 07:40:54;;;;;;;35.70;20.75;;;;;;;;;;5034378;28;20048;-68
2022/05/19 07:43:36;;;;;;;40.28;20.33;;;;;;;;;;5036277;28;20127;-70
2022/05/19 07:46:02;;;;;;;35.05;18.48;;;;;;;;;;5038652;28;20064;-69
2022/05/19 07:48:28;;;;;;;44.08;18.92;;;;;;;;;;5034112;28;20583;-67
2022/05/19 07:50:53;;;;;;;35.90;19.25;;;;;;;;;;5038260;28;20045;-68
2022/05/19 07:53:21;;;;;;;35.40;18.85;;;;;;;;;;5036123;28;20075;-69
2022/05/19 07:55:46;;;;;;;35.97;18.58;;;;;;;;;;5037239;28;20053;-69
2022/05/19 07:58:13;;;;;;;38.08;18.42;;;;;;;;;;5039242;28;20057;-70
2022/05/19 08:00:40;;;;;;;36.17;17.83;;;;;;;;;;5040952;28;20500;-70
2022/05/19 08:03:06;;;;;;;32.08;17.05;;;;;;;;;;5041596;28;20734;-72
2022/05/19 08:05:32;;;;;;;44.45;17.83;;;;;;;;;;5033318;28;20447;-71
2022/05/19 08:07:58;;;;;;;34.88;16.95;;;;;;;;;;5040912;28;20849;-73
2022/05/19 08:10:25;;;;;;;33.58;18.35;;;;;;;;;;5037029;28;20636;-70
2022/05/19 08:15:39;;;;;;;32.17;16.55;;;;;;;;;;5040880;28;20044;-70
2022/05/19 08:18:05;;;;;;;33.40;18.50;;;;;;;;;;5033812;28;20089;-68
2022/05/19 08:20:32;;;;;;;40.78;18.10;;;;;;;;;;5032392;28;20783;-69
2022/05/19 08:22:58;;;;;;;41.33;18.92;;;;;;;;;;5032581;28;20175;-71
2022/05/19 08:25:26;;;;;;;32.63;17.25;;;;;;;;;;5036737;28;20388;-70
2022/05/19 08:27:54;;;;;;;28.50;15.35;;;;;;;;;;5032612;28;20136;-68
2022/05/19 08:30:20;;;;;;;32.10;15.75;;;;;;;;;;5031816;28;20057;-70
2022/05/19 08:32:46;;;;;;;27.17;14.00;;;;;;;;;;5037381;28;20163;-72
2022/05/19 08:35:12;;;;;;;34.25;14.75;;;;;;;;;;5036100;28;20052;-71
2022/05/19 08:37:38;;;;;;;30.45;14.90;;;;;;;;;;5040926;28;20053;-73
2022/05/19 08:40:05;;;;;;;26.65;14.32;;;;;;;;;;5039121;28;20056;-74
2022/05/19 08:42:36;;;;;;;26.33;14.38;;;;;;;;;;5038699;28;20057;-72
2022/05/19 08:45:11;;;;;;;28.35;13.70;;;;;;;;;;5036976;28;20697;-73
2022/05/19 08:47:37;;;;;;;24.70;13.60;;;;;;;;;;5039933;28;20060;-72
2022/05/19 08:50:16;;;;;;;28.02;14.10;;;;;;;;;;5042663;28;20061;-70
2022/05/19 08:52:46;;;;;;;31.15;14.07;;;;;;;;;;5044967;28;20041;-70
2022/05/19 08:55:15;;;;;;;26.25;13.65;;;;;;;;;;5044502;28;20045;-73
2022/05/19 08:57:59;;;;;;;22.35;13.30;;;;;;;;;;5046234;28;20351;-69
2022/05/19 09:00:49;;;;;;;30.77;13.60;;;;;;;;;;5043125;28;20049;-71
2022/05/19 09:03:37;;;;;;;31.08;14.75;;;;;;;;;;5028753;28;20482;-71
2022/05/19 09:06:30;;;;;;;36.53;15.00;;;;;;;;;;5042465;28;20041;-73
2022/05/19 09:09:19;;;;;;;30.20;15.48;;;;;;;;;;5049486;28;20053;-73
2022/05/19 09:11:56;;;;;;;25.05;14.93;;;;;;;;;;5051839;28;20063;-74
2022/05/19 09:14:28;;;;;;;29.48;14.23;;;;;;;;;;5039285;28;20132;-75
2022/05/19 09:17:00;;;;;;;24.25;13.40;;;;;;;;;;5040750;28;20052;-72
2022/05/19 09:19:40;;;;;;;31.67;13.60;;;;;;;;;;5049919;28;20049;-72
2022/05/19 09:22:11;;;;;;;33.35;13.48;;;;;;;;;;5051228;28;20049;-77
2022/05/19 09:24:37;;;;;;;25.00;11.40;;;;;;;;;;5052410;28;20373;-73
2022/05/19 09:27:07;;;;;;;28.08;12.43;;;;;;;;;;5049695;28;20045;-73
2022/05/19 09:29:48;;;;;;;25.95;11.93;;;;;;;;;;5049649;28;20049;-73
2022/05/19 09:32:30;;;;;;;30.58;13.90;;;;;;;;;;5049221;28;20041;-70
2022/05/19 09:35:07;;;;;;;34.35;14.52;;;;;;;;;;5046847;28;20515;-71
2022/05/19 09:37:40;;;;;;;24.15;12.55;;;;;;;;;;5036154;28;20116;-71
2022/05/19 09:40:12;;;;;;;32.78;13.40;;;;;;;;;;5032134;28;20045;-71
2022/05/19 09:42:53;;;;;;;33.97;14.27;;;;;;;;;;5049694;28;20048;-69
2022/05/19 09:45:24;;;;;;;30.67;13.70;;;;;;;;;;5049084;28;20053;-69
2022/05/19 09:48:00;;;;;;;29.98;13.00;;;;;;;;;;5046714;28;20315;-72
2022/05/19 09:50:31;;;;;;;27.52;13.35;;;;;;;;;;5050103;28;20411;-71
2022/05/19 09:53:01;;;;;;;32.75;13.73;;;;;;;;;;5050568;28;20440;-72
2022/05/19 09:55:28;;;;;;;30.50;14.18;;;;;;;;;;5042336;28;20049;-70
2022/05/19 09:57:58;;;;;;;27.92;13.07;;;;;;;;;;5049425;28;20415;-71
2022/05/19 10:00:49;;;;;;;26.23;13.05;;;;;;;;;;5039376;28;20518;-72
2022/05/19 10:03:24;;;;;;;27.00;12.85;;;;;;;;;;5036491;28;20049;-64
2022/05/19 10:05:55;;;;;;;29.70;11.63;;;;;;;;;;5043720;28;20044;-74
2022/05/19 10:08:36;;;;;;;28.65;12.35;;;;;;;;;;5049161;28;20124;-72
2022/05/19 10:11:14;;;;;;;28.10;11.88;;;;;;;;;;5048808;28;20045;-73
2022/05/19 10:13:49;;;;;;;32.45;11.57;;;;;;;;;;5042447;28;20049;-72
2022/05/19 10:16:18;;;;;;;27.23;11.38;;;;;;;;;;5037298;28;20049;-72
2022/05/19 10:18:54;;;;;;;19.75;9.45;;;;;;;;;;5044140;28;20519;-73
2022/05/19 10:21:30;;;;;;;27.25;10.18;;;;;;;;;;5049728;28;20409;-73
2022/05/19 10:24:24;;;;;;;18.83;8.95;;;;;;;;;;5045264;28;20057;-72
2022/05/19 10:32:58;;;;;;;25.92;8.80;;;;;;;;;;5038359;28;20569;-71
2022/05/19 10:35:33;;;;;;;17.50;8.65;;;;;;;;;;5035022;28;20080;-71
2022/05/19 10:38:17;;;;;;;;;;;;;;;;;;5049512;28;20059;-71
2022/05/19 10:41:27;;;;;;;27.33;8.50;;;;;;;;;;5037651;28;20351;-73
2022/05/19 10:44:16;;;;;;;22.20;8.48;;;;;;;;;;5035956;28;20045;-70
2022/05/19 10:46:50;;;;;;;23.60;7.80;;;;;;;;;;5037387;28;20404;-73
2022/05/19 10:49:46;;;;;;;20.05;8.38;;;;;;;;;;5046157;28;20072;-72
2022/05/19 10:52:36;;;;;;;29.63;9.23;;;;;;;;;;5047472;28;20048;-71
2022/05/19 10:55:21;;;;;;;19.42;7.55;;;;;;;;;;5046086;28;20056;-73
2022/05/19 10:58:06;;;;;;;19.10;8.18;;;;;;;;;;5046019;28;20053;-74
2022/05/19 11:00:54;;;;;;;;;;;;;;;;;;5047968;28;20037;-74
2022/05/19 11:03:35;;;;;;;19.65;7.53;;;;;;;;;;5042951;28;20432;-74
2022/05/19 11:06:11;;;;;;;16.25;7.47;;;;;;;;;;5040533;28;20476;-75
2022/05/19 11:09:02;;;;;;;23.80;7.65;;;;;;;;;;5043214;28;20051;-75
2022/05/19 11:11:28;;;;;;;19.90;7.13;;;;;;;;;;5041407;28;20110;-74
2022/05/19 11:14:12;;;;;;;25.35;6.93;;;;;;;;;;5045574;28;20125;-71
2022/05/19 11:16:45;;;;;;;24.35;7.63;;;;;;;;;;5040784;28;20455;-71
2022/05/19 11:19:28;;;;;;;18.48;7.15;;;;;;;;;;5042851;28;20140;-72
2022/05/19 11:22:04;;;;;;;18.05;7.10;;;;;;;;;;5046673;28;20148;-71
2022/05/19 11:26:23;;;;;;;16.30;6.70;;;;;;;;;;5031954;28;20389;-70
2022/05/19 11:27:23;;;;;;;16.58;6.70;;;;;;;;;;5029464;28;20449;-71
2022/05/19 11:29:53;;;;;;;19.83;6.68;;;;;;;;;;5038335;28;20072;-72
2022/05/19 11:32:29;;;;;;;15.95;6.85;;;;;;;;;;5048265;28;20103;-72
2022/05/19 11:35:15;;;;;;;19.48;7.32;;;;;;;;;;5046450;28;20400;-71
2022/05/19 11:38:12;;;;;;;14.27;7.15;;;;;;;;;;5045776;28;20337;-70
2022/05/19 11:41:19;;;;;;;14.88;7.05;;;;;;;;;;5047545;28;20049;-72
2022/05/19 11:43:51;;;;;;;22.73;6.85;;;;;;;;;;5047674;28;20763;-71
2022/05/19 11:46:37;;;;;;;21.15;6.60;;;;;;;;;;5043344;28;20053;-73
2022/05/19 11:55:12;;;;;;;20.80;6.78;;;;;;;;;;5041634;28;20057;-70
2022/05/19 11:55:20;;;;;;;14.93;6.40;;;;;;;;;;5043810;28;20084;-72
2022/05/19 11:58:03;;;;;;;12.18;5.72;;;;;;;;;;5046905;28;20053;-73
2022/05/19 12:00:32;;;;;;;18.90;6.28;;;;;;;;;;5048396;28;20052;-72
2022/05/19 12:03:02;;;;;;;16.90;6.63;;;;;;;;;;5032708;28;20053;-72
2022/05/19 12:05:36;;;;;;;13.88;6.18;;;;;;;;;;5028678;28;20053;-71
2022/05/19 12:08:18;;;;;;;17.98;5.63;;;;;;;;;;5044498;28;20045;-72
2022/05/19 12:10:49;;;;;;;15.45;6.35;;;;;;;;;;5048724;28;20044;-71
2022/05/19 12:13:19;;;;;;;24.23;6.18;;;;;;;;;;5044162;28;20137;-73
2022/05/19 12:15:56;;;;;;;21.13;6.15;;;;;;;;;;5049714;28;20041;-73
2022/05/19 12:18:27;;;;;;;17.20;6.15;;;;;;;;;;5050357;28;20060;-73
2022/05/19 12:21:02;;;;;;;16.38;6.10;;;;;;;;;;5048670;28;20041;-72
2022/05/19 12:23:43;;;;;;;16.17;6.00;;;;;;;;;;5050078;28;20106;-71
2022/05/19 12:26:19;;;;;;;13.27;5.45;;;;;;;;;;5048703;28;20048;-71
2022/05/19 12:29:06;;;;;;;17.73;5.82;;;;;;;;;;5041121;28;20038;-73
2022/05/19 12:34:29;;;;;;;16.27;5.30;;;;;;;;;;5028129;28;20084;-73
2022/05/19 12:37:07;;;;;;;16.67;5.15;;;;;;;;;;5036700;28;20049;-70
2022/05/19 12:39:47;;;;;;;16.33;5.40;;;;;;;;;;5049121;28;20049;-73
2022/05/19 12:42:22;;;;;;;11.38;4.78;;;;;;;;;;5048478;28;20049;-72
2022/05/19 12:44:51;;;;;;;14.07;4.75;;;;;;;;;;5040741;28;20041;-72
2022/05/19 12:47:21;;;;;;;21.27;5.30;;;;;;;;;;5040282;28;20788;-74
2022/05/19 12:50:07;;;;;;;21.88;4.93;;;;;;;;;;5045149;28;20055;-75
2022/05/19 12:52:54;;;;;;;17.20;5.28;;;;;;;;;;5034578;28;20580;-76
2022/05/19 12:55:26;;;;;;;13.98;4.70;;;;;;;;;;5043546;28;20041;-73
2022/05/19 12:57:56;;;;;;;28.15;6.10;;;;;;;;;;5042481;28;20132;-75
2022/05/19 13:00:26;;;;;;;20.90;5.40;;;;;;;;;;5048343;28;20041;-75
2022/05/19 13:02:52;;;;;;;25.05;5.97;;;;;;;;;;5038501;28;20102;-74
2022/05/19 13:05:22;;;;;;;40.03;10.63;;;;;;;;;;5046845;28;20104;-73
2022/05/19 13:07:57;;;;;;;22.13;5.60;;;;;;;;;;5029095;28;20125;-73
2022/05/19 13:10:37;;;;;;;15.23;5.82;;;;;;;;;;5037910;28;20045;-75
2022/05/19 13:13:05;;;;;;;17.60;5.90;;;;;;;;;;5040852;28;20068;-72
2022/05/19 13:15:46;;;;;;;15.23;5.85;;;;;;;;;;5040055;28;20049;-72
2022/05/19 13:18:15;;;;;;;15.00;5.20;;;;;;;;;;5035638;28;20045;-71
2022/05/19 13:20:41;;;;;;;17.80;5.40;;;;;;;;;;5044146;28;20074;-78
2022/05/19 13:23:28;;;;;;;15.07;4.43;;;;;;;;;;5046298;28;20033;-75
2022/05/19 13:26:04;;;;;;;22.35;5.13;;;;;;;;;;5041445;28;20045;-74
2022/05/19 13:31:18;;;;;;;17.75;4.55;;;;;;;;;;5047110;28;20049;-72
2022/05/19 13:33:48;;;;;;;22.60;5.30;;;;;;;;;;5045257;28;20520;-72
2022/05/19 13:36:14;;;;;;;13.80;4.85;;;;;;;;;;5042844;28;20041;-72
2022/05/19 13:38:41;;;;;;;14.63;4.80;;;;;;;;;;5034595;28;20049;-71
2022/05/19 13:41:11;;;;;;;16.50;4.30;;;;;;;;;;5030499;28;20136;-74
2022/05/19 13:43:44;;;;;;;19.75;5.45;;;;;;;;;;5031877;28;20121;-74
2022/05/19 13:46:16;;;;;;;12.85;4.15;;;;;;;;;;5049367;28;20109;-74
2022/05/19 13:48:56;;;;;;;16.13;4.35;;;;;;;;;;5049577;28;20056;-72
2022/05/19 13:51:45;;;;;;;17.20;5.10;;;;;;;;;;5048577;28;20059;-74
2022/05/19 13:54:25;;;;;;;17.00;4.63;;;;;;;;;;5039831;28;20128;-73
2022/05/19 13:57:05;;;;;;;15.93;4.00;;;;;;;;;;5033114;28;20261;-72
2022/05/19 13:59:32;;;;;;;16.48;3.88;;;;;;;;;;5033122;28;20130;-74
2022/05/19 14:02:08;;;;;;;10.98;4.13;;;;;;;;;;5032659;28;20496;-72
2022/05/19 14:04:36;;;;;;;18.10;3.90;;;;;;;;;;5039121;28;20226;-73
2022/05/19 14:07:03;;;;;;;17.85;4.20;;;;;;;;;;5038109;28;20057;-75
2022/05/19 14:09:43;;;;;;;16.23;4.32;;;;;;;;;;5052437;28;20041;-72
2022/05/19 14:12:23;;;;;;;14.48;4.40;;;;;;;;;;5052904;28;20041;-72
2022/05/19 14:15:14;;;;;;;12.25;4.13;;;;;;;;;;5055823;28;20083;-73
2022/05/19 14:18:05;;;;;;;20.65;4.25;;;;;;;;;;5047337;28;20532;-73
2022/05/19 14:20:43;;;;;;;19.65;4.22;;;;;;;;;;5054555;28;20049;-74
2022/05/19 14:23:49;;;;;;;17.48;3.80;;;;;;;;;;5047619;28;20136;-74
2022/05/19 14:26:43;;;;;;;13.23;3.45;;;;;;;;;;5045786;28;20063;-70
2022/05/19 14:29:18;;;;;;;13.52;4.45;;;;;;;;;;5041224;28;20046;-73
2022/05/19 14:31:44;;;;;;;20.13;4.07;;;;;;;;;;5037867;28;20508;-75
2022/05/19 14:34:20;;;;;;;17.38;4.57;;;;;;;;;;5048233;28;20120;-76
2022/05/19 14:37:12;;;;;;;10.93;3.70;;;;;;;;;;5049349;28;20103;-72
2022/05/19 14:39:47;;;;;;;12.98;3.78;;;;;;;;;;5029552;28;20413;-73
2022/05/19 14:45:15;;;;;;;8.73;3.58;;;;;;;;;;5041552;28;20064;-73
2022/05/19 14:47:48;;;;;;;15.93;4.32;;;;;;;;;;5033612;28;20492;-70
2022/05/19 14:50:22;;;;;;;14.25;4.32;;;;;;;;;;5045535;28;20078;-73
2022/05/19 14:52:51;;;;;;;13.82;4.50;;;;;;;;;;5029527;28;20341;-77
2022/05/19 14:55:23;;;;;;;15.10;4.57;;;;;;;;;;5032268;28;20057;-74
2022/05/19 14:57:54;;;;;;;11.65;3.97;;;;;;;;;;5047758;28;20044;-74
2022/05/19 15:00:23;;;;;;;18.10;3.75;;;;;;;;;;5045990;28;20056;-73
2022/05/19 15:02:50;;;;;;;12.55;4.15;;;;;;;;;;5027557;28;20045;-73
2022/05/19 15:05:17;;;;;;;18.65;3.67;;;;;;;;;;5028285;28;20501;-73
2022/05/19 15:07:49;;;;;;;16.70;3.30;;;;;;;;;;5040579;28;20112;-73
2022/05/19 15:10:18;;;;;;;15.35;3.85;;;;;;;;;;5049637;28;20073;-74